createdAt,value
2022-10-24T00:04:25.473Z,97.5
2022-10-24T00:09:30.698Z,97.5
2022-10-24T00:14:36.914Z,97.5
2022-10-24T00:19:42.152Z,97.0
2022-10-24T00:24:48.359Z,97.0
2022-10-24T00:29:54.563Z,97.0
2022-10-24T00:35:00.773Z,97.0
2022-10-24T00:40:06.985Z,97.0
2022-10-24T00:45:13.191Z,97.0
2022-10-24T00:50:19.396Z,96.5
2022-10-24T00:55:25.610Z,96.5
2022-10-24T01:00:31.901Z,96.0
2022-10-24T01:05:38.028Z,96.0
2022-10-24T01:10:44.239Z,95.5
2022-10-24T01:15:50.442Z,95.5
2022-10-24T01:20:56.650Z,95.0
2022-10-24T01:26:02.864Z,95.0
2022-10-24T01:31:09.068Z,95.0
2022-10-24T01:36:15.318Z,94.5
2022-10-24T01:41:21.486Z,94.5
2022-10-24T01:46:27.691Z,94.0
2022-10-24T01:51:33.908Z,94.0
2022-10-24T01:56:40.108Z,93.5
2022-10-24T02:01:46.375Z,93.5
2022-10-24T02:06:51.551Z,93.0
2022-10-24T02:11:57.763Z,93.0
2022-10-24T02:17:03.004Z,92.5
2022-10-24T02:22:09.208Z,92.5
2022-10-24T02:27:14.496Z,92.0
2022-10-24T02:32:20.663Z,92.0
2022-10-24T02:37:26.864Z,91.5
2022-10-24T02:42:33.075Z,91.5
2022-10-24T02:47:39.277Z,91.0
2022-10-24T02:52:45.768Z,91.0
2022-10-24T02:57:51.694Z,91.0
2022-10-24T03:02:57.902Z,90.5
2022-10-24T03:08:04.112Z,90.5
2022-10-24T03:13:10.321Z,90.5
2022-10-24T03:18:16.530Z,90.0
2022-10-24T03:23:22.740Z,90.0
2022-10-24T03:28:28.943Z,89.5
2022-10-24T03:33:35.154Z,89.5
2022-10-24T03:38:41.359Z,89.5
2022-10-24T03:43:47.569Z,89.5
2022-10-24T03:48:53.802Z,89.0
2022-10-24T03:53:59.992Z,89.0
2022-10-24T03:59:06.200Z,89.0
2022-10-24T04:04:12.422Z,89.0
2022-10-24T04:09:18.609Z,89.0
2022-10-24T04:14:23.852Z,89.0
2022-10-24T04:19:30.088Z,89.0
2022-10-24T04:24:36.264Z,89.0
2022-10-24T04:29:41.498Z,89.0
2022-10-24T04:34:47.705Z,89.0
2022-10-24T04:39:53.912Z,88.5
2022-10-24T04:45:00.156Z,88.5
2022-10-24T04:50:06.331Z,88.5
2022-10-24T04:55:11.563Z,88.5
2022-10-24T05:00:17.772Z,88.5
2022-10-24T05:05:23.981Z,88.5
2022-10-24T05:10:30.182Z,88.5
2022-10-24T05:15:36.404Z,88.5
2022-10-24T05:20:42.613Z,88.5
2022-10-24T05:25:48.813Z,88.5
2022-10-24T05:30:55.019Z,88.5
2022-10-24T05:36:01.229Z,88.5
2022-10-24T05:41:07.448Z,88.5
2022-10-24T05:46:13.645Z,88.5
2022-10-24T05:51:19.858Z,88.5
2022-10-24T05:56:26.055Z,88.5
2022-10-24T06:01:32.302Z,88.5
2022-10-24T06:06:38.476Z,89.0
2022-10-24T06:11:44.693Z,88.5
2022-10-24T06:16:49.919Z,88.5
2022-10-24T06:21:56.128Z,88.5
2022-10-24T06:27:01.372Z,88.0
2022-10-24T06:32:07.571Z,88.0
2022-10-24T06:37:13.789Z,88.0
2022-10-24T06:42:19.990Z,88.0
2022-10-24T06:47:26.198Z,88.0
2022-10-24T06:52:32.414Z,88.0
2022-10-24T06:57:38.624Z,88.0
2022-10-24T07:02:45.169Z,88.0
2022-10-24T07:07:51.037Z,88.0
2022-10-24T07:12:57.242Z,88.5
2022-10-24T07:18:03.447Z,88.5
2022-10-24T07:23:10.500Z,88.5
2022-10-24T07:28:15.897Z,88.5
2022-10-24T07:33:22.079Z,88.5
2022-10-24T07:38:28.312Z,88.5
2022-10-24T07:43:34.490Z,88.5
2022-10-24T07:48:40.706Z,88.5
2022-10-24T07:53:46.916Z,88.5
2022-10-24T07:58:53.113Z,89.0
2022-10-24T08:03:59.322Z,89.0
2022-10-24T08:09:05.528Z,88.5
2022-10-24T08:14:10.773Z,88.5
2022-10-24T08:19:17.025Z,89.0
2022-10-24T08:24:23.191Z,88.5
2022-10-24T08:29:28.419Z,88.5
2022-10-24T08:34:34.631Z,88.5
2022-10-24T08:39:40.836Z,89.0
2022-10-24T08:44:47.047Z,88.5
2022-10-24T08:49:53.267Z,88.5
2022-10-24T08:55:03.269Z,88.0
2022-10-24T09:00:05.699Z,88.0
2022-10-24T09:05:11.891Z,87.0
2022-10-24T09:10:18.093Z,86.0
2022-10-24T09:15:24.300Z,86.5
2022-10-24T09:20:30.507Z,86.5
2022-10-24T09:25:36.714Z,86.5
2022-10-24T09:30:42.924Z,86.0
2022-10-24T09:35:49.140Z,86.0
2022-10-24T09:40:55.333Z,86.0
2022-10-24T09:46:01.553Z,85.5
2022-10-24T09:51:07.753Z,86.0
2022-10-24T09:56:13.967Z,85.5
2022-10-24T10:01:20.287Z,85.5
2022-10-24T10:06:26.389Z,85.5
2022-10-24T10:11:35.300Z,85.5
2022-10-24T10:16:37.831Z,86.0
2022-10-24T10:21:44.037Z,86.0
2022-10-24T10:26:49.281Z,86.0
2022-10-24T10:31:55.484Z,86.0
2022-10-24T10:37:01.707Z,85.0
2022-10-24T10:42:07.903Z,85.0
2022-10-24T10:47:14.103Z,84.5
2022-10-24T10:52:20.341Z,84.5
2022-10-24T10:57:28.874Z,86.0
2022-10-24T11:02:32.919Z,86.0
2022-10-24T11:07:38.944Z,86.0
2022-10-24T11:12:45.153Z,85.5
2022-10-24T11:17:51.357Z,85.5
2022-10-24T11:22:57.575Z,85.5
2022-10-24T11:28:03.778Z,85.5
2022-10-24T11:33:09.984Z,85.5
2022-10-24T11:38:16.200Z,86.0
2022-10-24T11:43:22.414Z,87.0
2022-10-24T11:48:28.613Z,87.5
2022-10-24T11:53:34.822Z,89.0
2022-10-24T11:58:41.024Z,89.5
2022-10-24T12:03:47.240Z,89.5
2022-10-24T12:08:53.447Z,88.5
2022-10-24T12:13:58.738Z,88.0
2022-10-24T12:19:04.884Z,87.5
2022-10-24T12:24:11.096Z,87.0
2022-10-24T12:29:17.308Z,86.5
2022-10-24T12:34:23.515Z,84.5
2022-10-24T12:39:29.728Z,83.0
2022-10-24T12:44:35.941Z,81.5
2022-10-24T12:49:42.167Z,81.0
2022-10-24T12:54:48.349Z,80.0
2022-10-24T12:59:54.572Z,79.5
2022-10-24T13:05:00.772Z,80.0
2022-10-24T13:10:07.020Z,80.0
2022-10-24T13:15:13.183Z,80.5
2022-10-24T13:20:19.388Z,79.5
2022-10-24T13:25:25.603Z,79.5
2022-10-24T13:30:31.818Z,80.5
2022-10-24T13:35:38.019Z,80.0
2022-10-24T13:40:44.226Z,80.5
2022-10-24T13:45:50.439Z,80.5
2022-10-24T13:50:56.647Z,81.0
2022-10-24T13:56:02.865Z,81.0
2022-10-24T14:01:08.147Z,81.5
2022-10-24T14:06:14.304Z,81.5
2022-10-24T14:11:22.630Z,81.5
2022-10-24T14:16:25.739Z,82.0
2022-10-24T14:21:31.955Z,82.0
2022-10-24T14:26:38.162Z,82.0
2022-10-24T14:31:43.404Z,81.5
2022-10-24T14:36:49.605Z,82.0
2022-10-24T14:41:55.811Z,82.0
2022-10-24T14:47:02.033Z,83.0
2022-10-24T14:52:08.227Z,83.0
2022-10-24T14:57:14.444Z,83.0
2022-10-24T15:02:20.650Z,83.0
2022-10-24T15:07:26.857Z,82.5
2022-10-24T15:12:33.063Z,82.0
2022-10-24T15:17:39.301Z,82.0
2022-10-24T15:22:45.490Z,82.0
2022-10-24T15:27:51.684Z,82.0
2022-10-24T15:32:57.898Z,82.5
2022-10-24T15:38:04.108Z,83.0
2022-10-24T15:43:10.314Z,83.0
2022-10-24T15:48:16.525Z,83.0
2022-10-24T15:53:22.729Z,83.5
2022-10-24T15:58:28.937Z,83.5
2022-10-24T16:03:35.168Z,83.5
2022-10-24T16:08:41.358Z,84.0
2022-10-24T16:13:47.558Z,84.5
2022-10-24T16:18:52.803Z,84.5
2022-10-24T16:23:59.005Z,85.0
2022-10-24T16:29:05.216Z,85.0
2022-10-24T16:34:10.447Z,85.5
2022-10-24T16:39:16.657Z,86.0
2022-10-24T16:44:22.865Z,86.0
2022-10-24T16:49:29.075Z,86.5
2022-10-24T16:54:35.283Z,87.0
2022-10-24T16:59:41.494Z,87.0
2022-10-24T17:04:47.699Z,87.5
2022-10-24T17:09:53.900Z,87.5
2022-10-24T17:15:00.114Z,88.0
2022-10-24T17:20:06.324Z,89.0
2022-10-24T17:25:12.546Z,89.5
2022-10-24T17:30:18.748Z,89.5
2022-10-24T17:35:24.948Z,90.0
2022-10-24T17:40:31.156Z,90.0
2022-10-24T17:45:37.365Z,90.5
2022-10-24T17:50:43.573Z,90.5
2022-10-24T17:55:49.781Z,91.0
2022-10-24T18:00:56.056Z,91.0
2022-10-24T18:06:02.200Z,91.5
2022-10-24T18:11:08.405Z,91.5
2022-10-24T18:16:14.613Z,91.5
2022-10-24T18:21:19.997Z,92.0
2022-10-24T18:26:26.058Z,92.0
2022-10-24T18:31:32.277Z,92.0
2022-10-24T18:36:38.470Z,92.0
2022-10-24T18:41:44.694Z,92.5
2022-10-24T18:46:50.892Z,92.5
2022-10-24T18:51:57.101Z,92.5
2022-10-24T18:57:03.314Z,93.0
2022-10-24T19:02:09.713Z,93.0
2022-10-24T19:07:15.723Z,93.5
2022-10-24T19:12:21.932Z,93.5
2022-10-24T19:17:28.137Z,93.5
2022-10-24T19:22:34.349Z,94.0
2022-10-24T19:27:40.631Z,94.0
2022-10-24T19:32:47.108Z,94.0
2022-10-24T19:37:52.974Z,94.0
2022-10-24T19:42:59.186Z,94.0
2022-10-24T19:48:05.395Z,94.0
2022-10-24T19:58:17.810Z,94.5
2022-10-24T20:03:24.013Z,94.5
2022-10-24T20:08:29.248Z,95.0
2022-10-24T20:13:35.456Z,95.0
2022-10-24T20:23:47.877Z,95.0
2022-10-24T20:28:54.080Z,95.0
2022-10-24T20:34:05.024Z,95.0
2022-10-24T20:39:06.505Z,95.0
2022-10-24T20:44:12.699Z,95.5
2022-10-24T20:49:18.963Z,95.5
2022-10-24T20:54:25.124Z,95.5
2022-10-24T20:59:31.331Z,95.5
2022-10-24T21:04:37.551Z,95.5
2022-10-24T21:09:43.747Z,95.5
2022-10-24T21:14:49.956Z,95.5
2022-10-24T21:19:56.161Z,95.5
2022-10-24T21:25:02.381Z,95.5
2022-10-24T21:30:13.521Z,95.5
2022-10-24T21:35:14.798Z,95.5
2022-10-24T21:40:21.039Z,95.5
2022-10-24T21:45:27.237Z,95.5
2022-10-24T21:50:33.470Z,95.5
2022-10-24T21:55:38.690Z,95.5
2022-10-24T22:00:43.892Z,95.5
2022-10-24T22:05:49.127Z,96.0
2022-10-24T22:10:55.339Z,96.0
2022-10-24T22:16:01.564Z,96.0
2022-10-24T22:21:07.628Z,96.0
2022-10-24T22:26:13.009Z,96.0
2022-10-24T22:31:19.226Z,96.5
2022-10-24T22:36:25.435Z,96.5
2022-10-24T22:41:31.632Z,96.5
2022-10-24T22:46:37.851Z,96.5
2022-10-24T22:51:44.088Z,96.5
2022-10-24T22:56:50.294Z,97.0
2022-10-24T23:01:56.617Z,97.0
2022-10-24T23:07:02.709Z,97.0
2022-10-24T23:12:08.912Z,97.0
2022-10-24T23:17:15.138Z,97.0
2022-10-24T23:22:21.340Z,97.5
2022-10-24T23:27:27.559Z,97.5
2022-10-24T23:32:33.769Z,97.5
2022-10-24T23:37:39.984Z,97.5
2022-10-24T23:42:46.544Z,98.0
2022-10-24T23:47:52.427Z,98.0
2022-10-24T23:52:58.635Z,98.0
2022-10-24T23:58:04.840Z,98.0
